createdAt,value
2023-04-12T00:00:55.865Z,0.40
2023-04-12T00:02:29.161Z,0.30
2023-04-12T00:04:05.678Z,0.30
2023-04-12T00:05:38.974Z,0.30
2023-04-12T00:07:12.117Z,0.30
2023-04-12T00:08:47.041Z,0.30
2023-04-12T00:10:20.530Z,0.30
2023-04-12T00:11:52.612Z,0.40
2023-04-12T00:13:25.822Z,0.40
2023-04-12T00:14:58.890Z,0.40
2023-04-12T00:16:32.128Z,0.40
2023-04-12T00:18:05.711Z,0.50
2023-04-12T00:19:41.418Z,0.40
2023-04-12T00:21:19.389Z,0.30
2023-04-12T00:22:53.910Z,0.20
2023-04-12T00:24:28.346Z,0.10
2023-04-12T00:26:01.433Z,0.10
2023-04-12T00:27:33.587Z,0.10
2023-04-12T00:29:06.820Z,0.10
2023-04-12T00:30:41.184Z,0.10
2023-04-12T00:32:14.343Z,0.20
2023-04-12T00:33:47.431Z,0.20
2023-04-12T00:35:20.602Z,0.20
2023-04-12T00:36:53.687Z,0.10
2023-04-12T00:38:26.761Z,0.00
2023-04-12T00:40:01.212Z,0.00
2023-04-12T00:41:34.279Z,-0.10
2023-04-12T00:43:07.861Z,-0.20
2023-04-12T00:44:41.393Z,-0.20
2023-04-12T00:46:14.606Z,-0.20
2023-04-12T00:47:47.879Z,-0.10
2023-04-12T00:49:21.266Z,0.00
2023-04-12T00:50:55.642Z,-0.10
2023-04-12T00:52:34.313Z,-0.10
2023-04-12T00:54:09.284Z,-0.20
2023-04-12T00:55:46.039Z,-0.20
2023-04-12T00:57:19.188Z,-0.20
2023-04-12T00:58:52.322Z,-0.10
2023-04-12T01:00:25.725Z,0.00
2023-04-12T01:02:00.580Z,0.10
2023-04-12T01:03:33.830Z,0.10
2023-04-12T01:05:08.637Z,0.10
2023-04-12T01:06:54.455Z,0.20
2023-04-12T01:08:39.584Z,0.20
2023-04-12T01:10:28.358Z,0.30
2023-04-12T01:12:30.764Z,0.40
2023-04-12T01:14:09.444Z,0.20
2023-04-12T01:15:52.443Z,0.10
2023-04-12T01:17:31.661Z,0.10
2023-04-12T01:19:17.750Z,0.20
2023-04-12T01:20:57.810Z,0.20
2023-04-12T01:22:46.684Z,0.20
2023-04-12T01:24:28.938Z,0.20
2023-04-12T01:26:15.831Z,0.20
2023-04-12T01:27:54.110Z,0.20
2023-04-12T01:29:28.530Z,0.20
2023-04-12T01:31:02.854Z,0.30
2023-04-12T01:32:38.200Z,0.30
2023-04-12T01:34:12.968Z,0.40
2023-04-12T01:35:46.494Z,0.40
2023-04-12T01:37:20.702Z,0.40
2023-04-12T01:38:55.277Z,0.40
2023-04-12T01:40:29.714Z,0.40
2023-04-12T01:42:02.773Z,0.40
2023-04-12T01:43:42.843Z,0.40
2023-04-12T01:45:16.096Z,0.40
2023-04-12T01:46:50.617Z,0.40
2023-04-12T01:48:23.795Z,0.30
2023-04-12T01:50:04.704Z,0.30
2023-04-12T01:51:46.864Z,0.20
2023-04-12T01:53:22.807Z,0.20
2023-04-12T01:54:59.975Z,0.10
2023-04-12T01:56:39.571Z,0.10
2023-04-12T01:58:15.332Z,0.20
2023-04-12T01:59:51.683Z,0.20
2023-04-12T02:01:26.539Z,0.30
2023-04-12T02:03:00.088Z,0.40
2023-04-12T02:04:34.606Z,0.40
2023-04-12T02:06:08.601Z,0.40
2023-04-12T02:07:42.903Z,0.40
2023-04-12T02:09:15.994Z,0.30
2023-04-12T02:10:49.101Z,0.20
2023-04-12T02:12:24.012Z,0.10
2023-04-12T02:13:57.457Z,0.10
2023-04-12T02:15:32.033Z,0.10
2023-04-12T02:17:05.910Z,0.20
2023-04-12T02:18:41.126Z,0.30
2023-04-12T02:20:17.983Z,0.40
2023-04-12T02:21:51.427Z,0.40
2023-04-12T02:23:24.516Z,0.40
2023-04-12T02:24:57.668Z,0.40
2023-04-12T02:26:30.890Z,0.40
2023-04-12T02:28:04.301Z,0.40
2023-04-12T02:29:37.461Z,0.30
2023-04-12T02:31:12.137Z,0.20
2023-04-12T02:32:47.252Z,0.20
2023-04-12T02:34:31.324Z,0.20
2023-04-12T02:36:12.664Z,0.30
2023-04-12T02:37:48.512Z,0.40
2023-04-12T02:39:22.454Z,0.30
2023-04-12T02:40:56.802Z,0.30
2023-04-12T02:42:30.268Z,0.30
2023-04-12T02:44:02.383Z,0.30
2023-04-12T02:45:35.845Z,0.30
2023-04-12T02:47:10.452Z,0.20
2023-04-12T02:48:44.058Z,0.20
2023-04-12T02:50:17.778Z,0.20
2023-04-12T02:51:57.446Z,0.10
2023-04-12T02:53:36.369Z,0.10
2023-04-12T02:55:18.507Z,0.10
2023-04-12T02:56:50.666Z,0.10
2023-04-12T02:58:42.494Z,0.10
2023-04-12T03:00:19.013Z,0.10
2023-04-12T03:01:53.958Z,0.10
2023-04-12T03:03:36.774Z,0.00
2023-04-12T03:05:23.612Z,0.00
2023-04-12T03:06:56.883Z,0.10
2023-04-12T03:08:48.249Z,-0.20
2023-04-12T03:10:22.219Z,0.10
2023-04-12T03:12:03.466Z,0.10
2023-04-12T03:13:41.097Z,0.10
2023-04-12T03:15:14.364Z,0.10
2023-04-12T03:16:51.609Z,0.10
2023-04-12T03:18:25.888Z,0.00
2023-04-12T03:20:10.093Z,-0.10
2023-04-12T03:21:46.757Z,-0.20
2023-04-12T03:23:20.233Z,-0.20
2023-04-12T03:24:59.673Z,-0.20
2023-04-12T03:26:33.008Z,-0.10
2023-04-12T03:28:16.158Z,0.00
2023-04-12T03:29:53.805Z,0.00
2023-04-12T03:31:29.394Z,0.10
2023-04-12T03:33:07.381Z,0.00
2023-04-12T03:34:39.792Z,0.10
2023-04-12T03:36:21.088Z,0.00
2023-04-12T03:37:58.301Z,-0.10
2023-04-12T03:39:32.024Z,-0.10
2023-04-12T03:41:05.348Z,-0.10
2023-04-12T03:42:43.402Z,-0.10
2023-04-12T03:44:18.742Z,-0.20
2023-04-12T03:45:51.580Z,-0.20
2023-04-12T03:47:25.061Z,-0.20
2023-04-12T03:48:57.207Z,-0.40
2023-04-12T03:50:42.021Z,-0.40
2023-04-12T03:52:17.144Z,-0.30
2023-04-12T03:53:51.599Z,-0.30
2023-04-12T03:55:24.648Z,-0.30
2023-04-12T03:56:59.070Z,-0.30
2023-04-12T03:58:37.909Z,-0.30
2023-04-12T04:00:14.655Z,-0.40
2023-04-12T04:02:07.030Z,-0.50
2023-04-12T04:03:44.893Z,-0.50
2023-04-12T04:05:26.065Z,-0.50
2023-04-12T04:06:59.399Z,-0.50
2023-04-12T04:08:36.251Z,-0.40
2023-04-12T04:10:10.082Z,-0.40
2023-04-12T04:11:46.888Z,-0.40
2023-04-12T04:13:20.094Z,-0.30
2023-04-12T04:14:53.535Z,-0.30
2023-04-12T04:16:37.845Z,-0.30
2023-04-12T04:18:13.180Z,-0.20
2023-04-12T04:19:46.260Z,-0.20
2023-04-12T04:21:19.584Z,-0.30
2023-04-12T04:22:53.500Z,-0.20
2023-04-12T04:24:30.623Z,-0.20
2023-04-12T04:26:10.088Z,-0.20
2023-04-12T04:27:47.077Z,-0.10
2023-04-12T04:29:20.217Z,-0.10
2023-04-12T04:30:55.642Z,0.00
2023-04-12T04:32:30.129Z,-0.10
2023-04-12T04:34:05.414Z,0.00
2023-04-12T04:35:41.533Z,0.10
2023-04-12T04:37:35.279Z,0.00
2023-04-12T04:39:09.095Z,0.00
2023-04-12T04:40:51.292Z,0.10
2023-04-12T04:42:25.285Z,0.10
2023-04-12T04:44:04.595Z,0.10
2023-04-12T04:45:41.342Z,0.30
2023-04-12T04:47:14.664Z,0.30
2023-04-12T04:48:47.432Z,0.40
2023-04-12T04:50:22.825Z,0.50
2023-04-12T04:51:57.920Z,0.60
2023-04-12T04:53:32.690Z,0.60
2023-04-12T04:55:09.834Z,0.60
2023-04-12T04:56:46.652Z,0.60
2023-04-12T04:58:22.385Z,0.80
2023-04-12T04:59:55.541Z,1.50
2023-04-12T05:01:29.464Z,2.50
2023-04-12T05:03:05.673Z,3.80
2023-04-12T05:04:38.956Z,5.00
2023-04-12T05:06:13.293Z,5.90
2023-04-12T05:07:45.613Z,6.30
2023-04-12T05:09:18.729Z,7.20
2023-04-12T05:10:58.479Z,7.70
2023-04-12T05:12:36.599Z,8.30
2023-04-12T05:14:12.423Z,8.70
2023-04-12T05:15:46.063Z,9.00
2023-04-12T05:17:19.157Z,9.00
2023-04-12T05:18:52.272Z,8.40
2023-04-12T05:20:25.384Z,7.20
2023-04-12T05:21:59.437Z,6.40
2023-04-12T05:23:35.994Z,6.60
2023-04-12T05:25:10.479Z,6.50
2023-04-12T05:26:51.174Z,5.90
2023-04-12T05:28:25.811Z,6.00
2023-04-12T05:29:59.232Z,6.50
2023-04-12T05:31:33.010Z,7.20
2023-04-12T05:33:10.203Z,7.60
2023-04-12T05:34:49.196Z,7.40
2023-04-12T05:36:22.582Z,6.80
2023-04-12T05:37:56.035Z,6.10
2023-04-12T05:39:31.594Z,6.50
2023-04-12T05:41:05.796Z,7.30
2023-04-12T05:42:40.058Z,8.10
2023-04-12T05:44:14.560Z,8.60
2023-04-12T05:45:47.720Z,9.20
2023-04-12T05:47:20.944Z,9.80
2023-04-12T05:48:55.131Z,9.90
2023-04-12T05:50:28.278Z,10.30
2023-04-12T05:52:01.510Z,10.10
2023-04-12T05:53:34.630Z,10.00
2023-04-12T05:55:10.617Z,10.30
2023-04-12T05:56:46.922Z,10.60
2023-04-12T05:58:19.971Z,10.60
2023-04-12T05:59:57.202Z,10.70
2023-04-12T06:01:32.438Z,11.50
2023-04-12T06:03:06.754Z,12.00
2023-04-12T06:04:50.221Z,12.30
2023-04-12T06:06:24.474Z,12.40
2023-04-12T06:07:56.644Z,11.80
2023-04-12T06:09:29.720Z,11.60
2023-04-12T06:11:02.792Z,11.70
2023-04-12T06:12:35.893Z,12.20
2023-04-12T06:14:11.746Z,12.40
2023-04-12T06:15:46.531Z,12.70
2023-04-12T06:17:19.657Z,12.60
2023-04-12T06:18:52.875Z,12.80
2023-04-12T06:20:26.175Z,13.00
2023-04-12T06:21:59.868Z,13.30
2023-04-12T06:23:33.000Z,13.70
2023-04-12T06:25:08.053Z,13.60
2023-04-12T06:26:43.128Z,13.50
2023-04-12T06:28:16.756Z,13.50
2023-04-12T06:29:53.793Z,13.40
2023-04-12T06:31:28.467Z,13.40
2023-04-12T06:33:02.969Z,13.00
2023-04-12T06:34:36.148Z,12.90
2023-04-12T06:36:15.509Z,13.10
2023-04-12T06:37:48.658Z,13.30
2023-04-12T06:39:22.136Z,13.90
2023-04-12T06:40:55.512Z,13.90
2023-04-12T06:42:28.596Z,13.50
2023-04-12T06:44:02.147Z,13.60
2023-04-12T06:45:35.265Z,13.60
2023-04-12T06:47:10.269Z,13.60
2023-04-12T06:48:43.420Z,13.80
2023-04-12T06:50:18.467Z,14.10
2023-04-12T06:51:51.574Z,14.30
2023-04-12T06:53:24.717Z,14.00
2023-04-12T06:54:58.464Z,13.40
2023-04-12T06:56:31.541Z,13.10
2023-04-12T06:58:04.635Z,12.70
2023-04-12T06:59:37.750Z,12.70
2023-04-12T07:01:11.278Z,13.10
2023-04-12T07:02:45.997Z,13.80
2023-04-12T07:04:19.379Z,14.10
2023-04-12T07:05:56.237Z,14.60
2023-04-12T07:07:29.345Z,15.10
2023-04-12T07:09:02.413Z,15.80
2023-04-12T07:10:36.169Z,16.70
2023-04-12T07:12:09.285Z,16.90
2023-04-12T07:13:42.381Z,16.30
2023-04-12T07:15:15.531Z,15.60
2023-04-12T07:16:48.950Z,14.80
2023-04-12T07:18:23.530Z,14.30
2023-04-12T07:19:56.881Z,14.10
2023-04-12T07:21:29.973Z,14.20
2023-04-12T07:23:03.331Z,14.10
2023-04-12T07:24:36.469Z,14.70
2023-04-12T07:26:09.641Z,15.00
2023-04-12T07:27:42.689Z,15.20
2023-04-12T07:29:17.089Z,15.50
2023-04-12T07:30:50.310Z,15.70
2023-04-12T07:32:23.855Z,15.50
2023-04-12T07:33:58.562Z,15.30
2023-04-12T07:35:31.820Z,15.20
2023-04-12T07:37:05.097Z,15.10
2023-04-12T07:38:38.241Z,14.80
2023-04-12T07:40:11.471Z,14.70
2023-04-12T07:41:46.453Z,14.60
2023-04-12T07:43:19.532Z,14.40
2023-04-12T07:44:52.649Z,14.20
2023-04-12T07:46:25.883Z,14.30
2023-04-12T07:47:59.083Z,14.40
2023-04-12T07:49:33.581Z,14.50
2023-04-12T07:51:07.148Z,14.90
2023-04-12T07:52:40.690Z,15.10
2023-04-12T07:54:14.108Z,15.30
2023-04-12T07:55:47.380Z,15.90
2023-04-12T07:57:20.458Z,16.20
2023-04-12T07:58:53.796Z,16.10
2023-04-12T08:00:27.051Z,16.10
2023-04-12T08:02:02.001Z,16.20
2023-04-12T08:03:35.506Z,16.40
2023-04-12T08:05:11.157Z,16.40
2023-04-12T08:06:44.240Z,16.00
2023-04-12T08:08:17.354Z,15.60
2023-04-12T08:09:51.013Z,15.40
2023-04-12T08:11:24.131Z,15.10
2023-04-12T08:12:57.216Z,15.00
2023-04-12T08:14:30.405Z,15.30
2023-04-12T08:16:03.513Z,15.50
2023-04-12T08:17:36.664Z,15.40
2023-04-12T08:19:09.766Z,15.20
2023-04-12T08:20:45.044Z,15.00
2023-04-12T08:22:18.202Z,14.90
2023-04-12T08:23:51.800Z,14.80
2023-04-12T08:25:24.927Z,15.00
2023-04-12T08:26:58.010Z,15.10
2023-04-12T08:28:31.287Z,15.20
2023-04-12T08:30:04.867Z,15.40
2023-04-12T08:31:37.975Z,15.40
2023-04-12T08:33:11.161Z,15.40
2023-04-12T08:34:46.077Z,15.90
2023-04-12T08:36:20.888Z,16.00
2023-04-12T08:37:53.954Z,15.90
2023-04-12T08:39:27.107Z,15.70
2023-04-12T08:41:03.470Z,15.50
2023-04-12T08:42:37.893Z,15.60
2023-04-12T08:44:12.691Z,15.50
2023-04-12T08:45:45.994Z,15.50
2023-04-12T08:47:19.247Z,15.30
2023-04-12T08:48:55.358Z,15.70
2023-04-12T08:50:29.164Z,16.00
2023-04-12T08:52:06.682Z,16.10
2023-04-12T08:53:40.286Z,16.00
2023-04-12T08:55:13.804Z,15.80
2023-04-12T08:56:47.785Z,15.40
2023-04-12T08:58:21.926Z,15.50
2023-04-12T08:59:56.734Z,15.50
2023-04-12T09:01:30.041Z,15.90
2023-04-12T09:03:03.322Z,16.40
2023-04-12T09:04:48.601Z,16.50
2023-04-12T09:06:21.903Z,17.00
2023-04-12T09:07:56.356Z,17.60
2023-04-12T09:09:50.865Z,18.00
2023-04-12T09:11:26.062Z,18.00
2023-04-12T09:12:59.373Z,17.40
2023-04-12T09:14:32.412Z,17.00
2023-04-12T09:16:06.659Z,17.80
2023-04-12T09:17:40.936Z,17.40
2023-04-12T09:19:14.149Z,16.50
2023-04-12T09:20:47.474Z,16.40
2023-04-12T09:22:20.539Z,17.10
2023-04-12T09:24:10.372Z,17.10
2023-04-12T09:25:48.334Z,17.40
2023-04-12T09:27:21.982Z,17.50
2023-04-12T09:28:55.083Z,17.10
2023-04-12T09:30:28.204Z,17.60
2023-04-12T09:32:04.318Z,17.30
2023-04-12T09:33:39.822Z,17.80
2023-04-12T09:35:13.069Z,18.10
2023-04-12T09:36:46.102Z,18.20
2023-04-12T09:38:19.202Z,18.20
2023-04-12T09:40:02.998Z,17.40
2023-04-12T09:41:36.756Z,17.40
2023-04-12T09:43:09.899Z,17.70
2023-04-12T09:44:43.425Z,17.30
2023-04-12T09:46:16.765Z,17.00
2023-04-12T09:47:50.305Z,16.80
2023-04-12T09:49:38.604Z,17.00
2023-04-12T09:51:12.864Z,17.20
2023-04-12T09:52:46.650Z,17.10
2023-04-12T09:54:20.043Z,16.70
2023-04-12T09:55:56.061Z,16.90
2023-04-12T09:57:29.204Z,17.20
2023-04-12T09:59:04.089Z,17.20
2023-04-12T10:00:39.252Z,17.50
2023-04-12T10:02:17.040Z,17.10
2023-04-12T10:03:51.341Z,17.10
2023-04-12T10:05:27.006Z,17.40
2023-04-12T10:07:02.342Z,17.40
2023-04-12T10:08:38.343Z,17.40
2023-04-12T10:10:13.011Z,17.00
2023-04-12T10:11:48.929Z,17.30
2023-04-12T10:13:26.037Z,17.90
2023-04-12T10:15:00.069Z,18.20
2023-04-12T10:16:35.271Z,18.30
2023-04-12T10:18:08.575Z,17.90
2023-04-12T10:19:42.004Z,18.10
2023-04-12T10:21:16.552Z,18.10
2023-04-12T10:22:51.310Z,17.90
2023-04-12T10:24:24.962Z,17.60
2023-04-12T10:25:58.666Z,17.90
2023-04-12T10:27:33.756Z,17.80
2023-04-12T10:29:24.638Z,17.90
2023-04-12T10:30:58.973Z,17.40
2023-04-12T10:32:34.890Z,18.00
2023-04-12T10:34:08.567Z,17.50
2023-04-12T10:35:56.374Z,17.30
2023-04-12T10:37:59.068Z,17.00
2023-04-12T10:39:40.737Z,16.90
2023-04-12T10:41:16.590Z,17.20
2023-04-12T10:43:26.792Z,17.00
2023-04-12T10:45:38.739Z,17.80
2023-04-12T10:47:12.354Z,18.60
2023-04-12T10:48:53.777Z,17.50
2023-04-12T10:50:28.135Z,17.40
2023-04-12T10:52:14.696Z,17.20
2023-04-12T10:53:47.844Z,16.70
2023-04-12T10:55:30.073Z,17.10
2023-04-12T10:57:04.128Z,16.80
2023-04-12T10:58:59.013Z,16.90
2023-04-12T11:01:08.342Z,16.80
2023-04-12T11:03:12.493Z,17.40
2023-04-12T11:05:05.217Z,18.10
2023-04-12T11:07:01.735Z,18.50
2023-04-12T11:08:47.421Z,17.90
2023-04-12T11:10:31.223Z,17.60
2023-04-12T11:12:14.146Z,17.70
2023-04-12T11:13:47.882Z,17.30
2023-04-12T11:15:27.104Z,17.50
2023-04-12T11:17:24.559Z,18.10
2023-04-12T11:18:58.316Z,18.10
2023-04-12T11:20:33.465Z,17.20
2023-04-12T11:22:09.463Z,16.40
2023-04-12T11:23:44.560Z,15.90
2023-04-12T11:25:18.885Z,15.70
2023-04-12T11:26:52.445Z,16.00
2023-04-12T11:28:29.016Z,16.70
2023-04-12T11:30:03.287Z,17.10
2023-04-12T11:31:40.963Z,17.90
2023-04-12T11:33:31.526Z,18.20
2023-04-12T11:35:04.767Z,17.60
2023-04-12T11:36:40.552Z,17.30
2023-04-12T11:38:13.680Z,16.70
2023-04-12T11:39:48.652Z,16.70
2023-04-12T11:41:21.802Z,17.00
2023-04-12T11:42:57.550Z,17.10
2023-04-12T11:44:47.862Z,17.30
2023-04-12T11:46:28.171Z,18.10
2023-04-12T11:48:02.750Z,18.50
2023-04-12T11:49:36.043Z,17.10
2023-04-12T11:51:22.361Z,16.30
2023-04-12T11:52:55.525Z,16.70
2023-04-12T11:54:30.322Z,16.80
2023-04-12T11:56:03.385Z,16.90
2023-04-12T11:57:36.754Z,17.20
2023-04-12T11:59:10.122Z,17.40
2023-04-12T12:00:44.820Z,18.20
2023-04-12T12:02:23.316Z,18.80
2023-04-12T12:03:58.991Z,19.00
2023-04-12T12:05:36.736Z,18.80
2023-04-12T12:07:12.353Z,18.70
2023-04-12T12:08:45.925Z,17.80
2023-04-12T12:10:37.837Z,17.30
2023-04-12T12:12:13.080Z,18.00
2023-04-12T12:13:47.787Z,18.60
2023-04-12T12:15:21.104Z,18.40
2023-04-12T12:16:56.796Z,17.50
2023-04-12T12:18:29.918Z,17.30
2023-04-12T12:20:04.828Z,17.50
2023-04-12T12:21:38.080Z,17.90
2023-04-12T12:23:11.205Z,18.40
2023-04-12T12:24:49.145Z,18.20
2023-04-12T12:26:23.481Z,18.40
2023-04-12T12:27:59.301Z,18.50
2023-04-12T12:29:39.286Z,18.70
2023-04-12T12:31:12.646Z,19.10
2023-04-12T12:32:45.999Z,19.20
2023-04-12T12:34:19.966Z,19.30
2023-04-12T12:35:58.844Z,18.80
2023-04-12T12:37:32.299Z,18.80
2023-04-12T12:39:08.089Z,18.70
2023-04-12T12:40:41.406Z,18.00
2023-04-12T12:42:14.631Z,18.10
2023-04-12T12:43:47.789Z,18.20
2023-04-12T12:45:23.186Z,18.30
2023-04-12T12:47:03.393Z,17.80
2023-04-12T12:48:48.133Z,17.30
2023-04-12T12:50:24.873Z,16.90
2023-04-12T12:51:59.774Z,17.30
2023-04-12T12:53:32.885Z,17.40
2023-04-12T12:55:07.181Z,17.20
2023-04-12T12:56:40.301Z,17.20
2023-04-12T12:58:13.467Z,17.40
2023-04-12T12:59:46.538Z,17.40
2023-04-12T13:01:19.697Z,17.80
2023-04-12T13:02:53.250Z,17.80
2023-04-12T13:04:27.157Z,17.80
2023-04-12T13:06:00.386Z,18.00
2023-04-12T13:07:34.959Z,17.10
2023-04-12T13:09:08.258Z,16.50
2023-04-12T13:10:41.427Z,16.10
2023-04-12T13:12:15.831Z,15.80
2023-04-12T13:13:48.933Z,15.70
2023-04-12T13:15:23.741Z,15.80
2023-04-12T13:16:57.562Z,15.60
2023-04-12T13:18:30.764Z,15.80
2023-04-12T13:20:04.334Z,15.70
2023-04-12T13:21:37.463Z,16.00
2023-04-12T13:23:11.918Z,16.10
2023-04-12T13:24:45.299Z,15.80
2023-04-12T13:26:18.746Z,15.90
2023-04-12T13:27:52.585Z,16.20
2023-04-12T13:29:25.675Z,16.40
2023-04-12T13:30:58.760Z,16.40
2023-04-12T13:32:31.874Z,16.50
2023-04-12T13:34:05.012Z,16.20
2023-04-12T13:35:38.121Z,16.50
2023-04-12T13:37:11.287Z,16.60
2023-04-12T13:38:45.724Z,16.60
2023-04-12T13:40:18.814Z,16.80
2023-04-12T13:41:52.202Z,16.70
2023-04-12T13:43:25.285Z,16.50
2023-04-12T13:44:58.430Z,16.10
2023-04-12T13:46:32.329Z,15.90
2023-04-12T13:48:05.978Z,16.20
2023-04-12T13:49:39.164Z,16.30
2023-04-12T13:51:12.339Z,16.30
2023-04-12T13:52:45.438Z,16.40
2023-04-12T13:54:20.098Z,16.10
2023-04-12T13:55:53.166Z,15.50
2023-04-12T13:57:26.262Z,15.10
2023-04-12T13:58:59.741Z,15.40
2023-04-12T14:00:32.950Z,15.40
2023-04-12T14:02:06.128Z,15.20
2023-04-12T14:03:39.744Z,15.20
2023-04-12T14:05:12.929Z,15.10
2023-04-12T14:06:46.416Z,15.00
2023-04-12T14:08:19.480Z,15.00
2023-04-12T14:09:55.763Z,15.20
2023-04-12T14:11:28.962Z,15.30
2023-04-12T14:13:02.067Z,15.00
2023-04-12T14:14:35.256Z,15.20
2023-04-12T14:16:09.340Z,15.40
2023-04-12T14:17:42.613Z,15.40
2023-04-12T14:19:16.556Z,15.30
2023-04-12T14:20:52.604Z,15.30
2023-04-12T14:22:25.794Z,15.30
2023-04-12T14:23:59.077Z,15.20
2023-04-12T14:25:35.032Z,15.20
2023-04-12T14:27:08.256Z,15.20
2023-04-12T14:28:41.494Z,15.10
2023-04-12T14:30:16.395Z,15.00
2023-04-12T14:31:50.830Z,14.50
2023-04-12T14:33:23.907Z,14.50
2023-04-12T14:34:57.005Z,14.50
2023-04-12T14:36:31.048Z,14.50
2023-04-12T14:38:04.620Z,14.30
2023-04-12T14:39:37.800Z,14.30
2023-04-12T14:41:13.982Z,14.20
2023-04-12T14:42:47.130Z,14.10
2023-04-12T14:44:21.003Z,13.80
2023-04-12T14:45:55.067Z,13.60
2023-04-12T14:47:28.311Z,13.60
2023-04-12T14:49:01.776Z,13.40
2023-04-12T14:50:35.078Z,13.30
2023-04-12T14:52:08.229Z,13.10
2023-04-12T14:53:42.731Z,13.00
2023-04-12T14:55:16.813Z,13.00
2023-04-12T14:56:53.918Z,12.90
2023-04-12T14:58:29.364Z,12.80
2023-04-12T15:00:02.583Z,12.70
2023-04-12T15:01:37.875Z,12.60
2023-04-12T15:03:11.411Z,12.30
2023-04-12T15:04:44.906Z,12.20
2023-04-12T15:06:18.334Z,12.10
2023-04-12T15:07:51.456Z,12.00
2023-04-12T15:09:25.955Z,11.90
2023-04-12T15:10:59.600Z,12.00
2023-04-12T15:12:35.401Z,12.00
2023-04-12T15:14:09.198Z,12.10
2023-04-12T15:15:42.852Z,12.20
2023-04-12T15:17:16.488Z,12.20
2023-04-12T15:18:52.311Z,12.20
2023-04-12T15:20:25.534Z,12.20
2023-04-12T15:22:00.242Z,12.10
2023-04-12T15:23:33.442Z,12.10
2023-04-12T15:25:07.826Z,12.00
2023-04-12T15:26:41.003Z,12.00
2023-04-12T15:28:15.758Z,11.90
2023-04-12T15:29:50.151Z,11.80
2023-04-12T15:31:23.662Z,11.70
2023-04-12T15:32:57.057Z,11.50
2023-04-12T15:34:33.899Z,11.40
2023-04-12T15:36:07.670Z,11.40
2023-04-12T15:37:41.164Z,11.30
2023-04-12T15:39:15.136Z,11.30
2023-04-12T15:40:54.421Z,11.30
2023-04-12T15:42:27.634Z,11.30
2023-04-12T15:44:02.117Z,11.40
2023-04-12T15:45:35.471Z,11.40
2023-04-12T15:47:11.479Z,11.40
2023-04-12T15:48:44.867Z,11.40
2023-04-12T15:50:19.049Z,11.50
2023-04-12T15:51:52.757Z,11.50
2023-04-12T15:53:27.758Z,11.60
2023-04-12T15:55:00.856Z,11.60
2023-04-12T15:56:35.437Z,11.60
2023-04-12T15:58:08.847Z,11.60
2023-04-12T15:59:43.291Z,11.70
2023-04-12T16:01:16.417Z,11.70
2023-04-12T16:02:53.714Z,11.60
2023-04-12T16:04:27.327Z,11.50
2023-04-12T16:06:00.562Z,11.50
2023-04-12T16:07:33.809Z,11.50
2023-04-12T16:09:07.299Z,11.50
2023-04-12T16:10:41.371Z,11.40
2023-04-12T16:12:14.514Z,11.40
2023-04-12T16:13:49.646Z,11.40
2023-04-12T16:15:24.175Z,11.40
2023-04-12T16:16:59.285Z,11.50
2023-04-12T16:18:32.419Z,11.50
2023-04-12T16:20:10.089Z,11.60
2023-04-12T16:21:44.490Z,11.60
2023-04-12T16:23:17.776Z,11.60
2023-04-12T16:24:50.826Z,11.60
2023-04-12T16:26:23.976Z,11.60
2023-04-12T16:27:57.847Z,11.60
2023-04-12T16:29:31.577Z,11.70
2023-04-12T16:31:06.527Z,11.70
2023-04-12T16:32:39.805Z,11.80
2023-04-12T16:34:12.996Z,11.80
2023-04-12T16:35:46.071Z,11.90
2023-04-12T16:37:19.274Z,11.80
2023-04-12T16:38:54.867Z,11.90
2023-04-12T16:40:28.675Z,11.90
2023-04-12T16:42:04.123Z,11.90
2023-04-12T16:43:37.359Z,11.90
2023-04-12T16:45:11.977Z,11.90
2023-04-12T16:46:47.759Z,11.90
2023-04-12T16:48:22.563Z,11.90
2023-04-12T16:49:55.788Z,11.60
2023-04-12T16:51:37.076Z,11.90
2023-04-12T16:53:10.649Z,11.90
2023-04-12T16:54:43.854Z,11.90
2023-04-12T16:56:17.264Z,11.90
2023-04-12T16:57:53.181Z,11.80
2023-04-12T16:59:26.330Z,11.80
2023-04-12T17:00:59.456Z,11.80
2023-04-12T17:02:34.904Z,11.80
2023-04-12T17:04:08.269Z,11.80
2023-04-12T17:05:41.500Z,11.80
2023-04-12T17:07:14.829Z,11.80
2023-04-12T17:08:49.012Z,11.70
2023-04-12T17:10:23.013Z,11.70
2023-04-12T17:11:56.548Z,11.70
2023-04-12T17:13:30.269Z,11.70
2023-04-12T17:15:04.417Z,11.60
2023-04-12T17:16:37.660Z,11.70
2023-04-12T17:18:12.281Z,11.70
2023-04-12T17:19:45.545Z,11.70
2023-04-12T17:21:20.149Z,11.70
2023-04-12T17:22:53.414Z,11.70
2023-04-12T17:24:26.660Z,11.70
2023-04-12T17:25:59.794Z,11.80
2023-04-12T17:27:34.337Z,11.70
2023-04-12T17:29:07.538Z,11.80
2023-04-12T17:30:40.636Z,11.80
2023-04-12T17:32:13.999Z,11.70
2023-04-12T17:33:48.479Z,11.70
2023-04-12T17:35:21.792Z,11.60
2023-04-12T17:36:55.224Z,11.60
2023-04-12T17:38:28.421Z,11.70
2023-04-12T17:40:01.648Z,11.60
2023-04-12T17:41:34.728Z,11.60
2023-04-12T17:43:07.851Z,11.60
2023-04-12T17:44:41.040Z,11.60
2023-04-12T17:46:14.202Z,11.60
2023-04-12T17:47:47.389Z,11.60
2023-04-12T17:49:22.339Z,11.60
2023-04-12T17:50:55.458Z,11.60
2023-04-12T17:52:28.628Z,11.60
2023-04-12T17:54:03.604Z,11.50
2023-04-12T17:55:38.714Z,11.50
2023-04-12T17:57:12.201Z,11.50
2023-04-12T17:58:45.286Z,11.50
2023-04-12T18:00:19.848Z,11.40
2023-04-12T18:01:53.018Z,11.50
2023-04-12T18:03:26.797Z,11.50
2023-04-12T18:05:01.348Z,11.50
2023-04-12T18:06:34.460Z,11.50
2023-04-12T18:08:09.911Z,11.50
2023-04-12T18:09:44.962Z,11.60
2023-04-12T18:11:18.259Z,11.50
2023-04-12T18:12:51.503Z,11.50
2023-04-12T18:14:24.861Z,11.60
2023-04-12T18:15:58.670Z,11.60
2023-04-12T18:17:31.855Z,11.60
2023-04-12T18:19:06.585Z,11.60
2023-04-12T18:20:41.066Z,11.60
2023-04-12T18:22:14.132Z,11.70
2023-04-12T18:23:47.259Z,11.70
2023-04-12T18:25:20.544Z,11.70
2023-04-12T18:26:53.718Z,11.70
2023-04-12T18:28:27.528Z,11.70
2023-04-12T18:30:01.450Z,11.60
2023-04-12T18:31:35.430Z,11.70
2023-04-12T18:33:08.630Z,11.80
2023-04-12T18:34:41.858Z,11.70
2023-04-12T18:36:16.461Z,11.70
2023-04-12T18:37:49.644Z,11.70
2023-04-12T18:39:22.804Z,11.70
2023-04-12T18:40:55.952Z,11.60
2023-04-12T18:42:29.074Z,11.50
2023-04-12T18:44:02.592Z,11.50
2023-04-12T18:45:40.118Z,11.40
2023-04-12T18:47:13.234Z,11.40
2023-04-12T18:48:48.035Z,11.40
2023-04-12T18:50:21.512Z,11.30
2023-04-12T18:51:58.216Z,11.40
2023-04-12T18:53:31.322Z,11.30
2023-04-12T18:55:05.134Z,11.30
2023-04-12T18:56:38.229Z,11.30
2023-04-12T18:58:11.772Z,11.30
2023-04-12T18:59:47.849Z,11.30
2023-04-12T19:01:21.295Z,11.30
2023-04-12T19:02:54.532Z,11.20
2023-04-12T19:04:27.949Z,11.20
2023-04-12T19:06:02.297Z,11.10
2023-04-12T19:07:36.894Z,11.10
2023-04-12T19:09:09.987Z,11.10
2023-04-12T19:10:43.170Z,11.10
2023-04-12T19:12:16.405Z,11.20
2023-04-12T19:13:49.595Z,11.20
2023-04-12T19:15:22.663Z,11.10
2023-04-12T19:16:56.118Z,11.10
2023-04-12T19:18:30.124Z,11.10
2023-04-12T19:20:04.030Z,11.10
2023-04-12T19:21:37.744Z,11.00
2023-04-12T19:23:12.246Z,11.00
2023-04-12T19:24:46.039Z,11.00
2023-04-12T19:26:19.112Z,11.00
2023-04-12T19:27:52.219Z,11.00
2023-04-12T19:29:27.253Z,11.00
2023-04-12T19:31:00.438Z,11.00
2023-04-12T19:32:33.573Z,11.00
2023-04-12T19:34:06.796Z,11.00
2023-04-12T19:35:40.630Z,11.00
2023-04-12T19:37:14.171Z,11.10
2023-04-12T19:38:48.986Z,11.10
2023-04-12T19:40:22.488Z,11.10
2023-04-12T19:41:56.341Z,11.10
2023-04-12T19:43:29.412Z,11.10
2023-04-12T19:45:03.075Z,11.10
2023-04-12T19:46:38.747Z,11.10
2023-04-12T19:48:13.047Z,11.00
2023-04-12T19:49:46.938Z,11.10
2023-04-12T19:51:20.034Z,11.10
2023-04-12T19:52:53.197Z,11.10
2023-04-12T19:54:28.493Z,11.10
2023-04-12T19:56:04.189Z,11.10
2023-04-12T19:57:38.597Z,11.10
2023-04-12T19:59:11.725Z,11.10
2023-04-12T20:00:45.123Z,11.10
2023-04-12T20:02:18.357Z,11.10
2023-04-12T20:03:51.736Z,11.00
2023-04-12T20:05:25.185Z,11.00
2023-04-12T20:06:58.265Z,10.90
2023-04-12T20:08:31.979Z,10.90
2023-04-12T20:10:10.222Z,11.00
2023-04-12T20:11:43.358Z,10.90
2023-04-12T20:13:16.512Z,10.90
2023-04-12T20:14:49.594Z,10.90
2023-04-12T20:16:24.228Z,10.90
2023-04-12T20:17:57.373Z,10.90
2023-04-12T20:19:30.750Z,10.90
2023-04-12T20:21:04.676Z,10.90
2023-04-12T20:22:38.111Z,10.80
2023-04-12T20:24:12.652Z,10.80
2023-04-12T20:25:48.965Z,10.70
2023-04-12T20:27:22.968Z,10.70
2023-04-12T20:28:56.560Z,10.70
2023-04-12T20:30:30.084Z,10.70
2023-04-12T20:32:04.265Z,10.70
2023-04-12T20:33:37.429Z,10.70
2023-04-12T20:35:12.676Z,10.70
2023-04-12T20:36:46.463Z,10.70